Time;durP1;ratioP1;P1;durP2;ratioP2;P2;SDS_P1;SDS_P2;PMS_P1;PMS_P2;Temp;Humidity;BMP_temperature;BMP_pressure;BME280_temperature;BME280_humidity;BME280_pressure;Samples;Min_cycle;Max_cycle;Signal;HPM_P1;HPM_P2
2021/07/08 00:02:24;;;;;;;15.32;13.70;;;15.40;99.90;;;;;;5020936;28;20481;-81
2021/07/08 00:04:50;;;;;;;25.60;15.60;;;15.30;99.90;;;;;;5036601;28;20030;-81
2021/07/08 00:07:16;;;;;;;13.63;11.93;;;15.40;99.90;;;;;;5036590;28;20053;-81
2021/07/08 00:09:42;;;;;;;13.35;11.80;;;15.40;99.90;;;;;;5034033;28;20055;-81
2021/07/08 00:12:09;;;;;;;15.68;11.73;;;15.40;99.90;;;;;;5005201;28;20037;-80
2021/07/08 00:14:35;;;;;;;20.67;12.40;;;15.30;99.90;;;;;;5034714;28;20048;-80
2021/07/08 00:17:05;;;;;;;19.40;13.65;;;15.30;99.90;;;;;;5036665;28;20115;-81
2021/07/08 00:19:31;;;;;;;16.30;13.38;;;15.30;99.90;;;;;;5022321;28;20028;-81
2021/07/08 00:21:57;;;;;;;17.40;13.45;;;15.30;99.90;;;;;;5016075;28;20768;-81
2021/07/08 00:24:23;;;;;;;14.77;12.95;;;15.20;99.90;;;;;;5034315;28;20047;-81
2021/07/08 00:26:49;;;;;;;18.77;12.60;;;15.20;99.90;;;;;;5023487;28;20061;-81
2021/07/08 00:29:15;;;;;;;16.90;12.32;;;15.20;99.90;;;;;;5008290;28;20045;-81
2021/07/08 00:31:40;;;;;;;18.45;12.13;;;15.20;99.90;;;;;;5036420;28;20444;-81
2021/07/08 00:34:06;;;;;;;15.88;10.93;;;15.20;99.90;;;;;;5017399;28;20424;-81
2021/07/08 00:36:32;;;;;;;25.40;12.98;;;15.20;99.90;;;;;;5036368;28;20393;-81
2021/07/08 00:38:58;;;;;;;14.18;11.13;;;15.20;99.90;;;;;;5024704;28;20040;-81
2021/07/08 00:41:24;;;;;;;12.68;9.18;;;15.10;99.90;;;;;;5034376;28;20041;-81
2021/07/08 00:43:51;;;;;;;15.25;10.07;;;15.10;99.90;;;;;;5014215;28;20409;-81
2021/07/08 00:46:19;;;;;;;15.10;11.75;;;15.10;99.90;;;;;;5019300;28;20157;-81
2021/07/08 00:48:45;;;;;;;17.02;10.15;;;15.00;99.90;;;;;;5029756;28;20417;-81
2021/07/08 00:51:10;;;;;;;20.50;11.10;;;15.00;99.90;;;;;;5009093;28;20065;-81
2021/07/08 00:53:36;;;;;;;14.43;10.32;;;15.00;99.90;;;;;;5019666;28;20033;-81
2021/07/08 00:56:04;;;;;;;15.13;8.90;;;15.00;99.90;;;;;;5018559;28;20392;-81
2021/07/08 00:58:31;;;;;;;12.90;8.40;;;15.00;99.90;;;;;;5033429;28;20041;-81
2021/07/08 01:00:57;;;;;;;15.15;8.15;;;14.90;99.90;;;;;;5020168;28;20082;-81
2021/07/08 01:03:23;;;;;;;10.80;6.50;;;14.90;99.90;;;;;;5029987;28;20510;-81
2021/07/08 01:05:51;;;;;;;10.95;5.90;;;14.90;99.90;;;;;;5032760;28;20061;-81
2021/07/08 01:08:18;;;;;;;8.07;7.28;;;14.90;99.90;;;;;;5031656;28;20285;-81
2021/07/08 01:10:49;;;;;;;16.33;8.80;;;14.90;99.90;;;;;;5028681;28;20099;-81
2021/07/08 01:13:18;;;;;;;16.98;9.13;;;14.90;99.90;;;;;;5030169;28;20095;-81
2021/07/08 01:15:44;;;;;;;9.93;6.93;;;14.80;99.90;;;;;;5030919;28;20029;-81
2021/07/08 01:18:10;;;;;;;9.57;8.50;;;14.80;99.90;;;;;;5029442;28;20037;-81
2021/07/08 01:20:38;;;;;;;10.90;7.88;;;14.80;99.90;;;;;;5028538;28;20047;-82
2021/07/08 01:23:04;;;;;;;7.43;5.20;;;14.80;99.90;;;;;;5004916;28;20123;-81
2021/07/08 01:25:36;;;;;;;6.75;4.75;;;14.80;99.90;;;;;;5001467;28;20041;-82
2021/07/08 01:28:05;;;;;;;6.00;4.78;;;14.70;99.90;;;;;;5034759;28;20036;-81
2021/07/08 01:30:31;;;;;;;12.63;4.97;;;14.70;99.90;;;;;;5031524;28;20040;-82
2021/07/08 01:32:58;;;;;;;6.70;5.45;;;14.70;99.90;;;;;;5013417;28;20083;-82
2021/07/08 01:35:24;;;;;;;6.88;5.57;;;14.60;99.90;;;;;;5019330;28;20602;-81
2021/07/08 01:37:50;;;;;;;8.95;6.18;;;14.60;99.90;;;;;;5031879;28;20167;-81
2021/07/08 01:40:18;;;;;;;7.93;6.45;;;14.60;99.90;;;;;;5027069;28;20475;-81
2021/07/08 01:42:44;;;;;;;11.57;7.68;;;14.60;99.90;;;;;;5026683;28;20037;-81
2021/07/08 01:45:14;;;;;;;11.90;8.52;;;14.50;99.90;;;;;;5029267;28;20379;-82
2021/07/08 01:47:39;;;;;;;10.70;8.15;;;14.60;99.90;;;;;;5028964;28;20096;-81
2021/07/08 01:50:07;;;;;;;10.93;6.65;;;14.60;99.90;;;;;;5011484;28;20065;-82
2021/07/08 01:52:34;;;;;;;9.02;7.75;;;14.60;99.90;;;;;;5032135;28;20042;-82
2021/07/08 01:55:00;;;;;;;12.75;10.05;;;14.60;99.90;;;;;;5026768;28;20413;-82
2021/07/08 01:57:26;;;;;;;14.60;9.93;;;14.60;99.90;;;;;;5000451;28;20037;-81
2021/07/08 01:59:52;;;;;;;10.15;8.43;;;14.60;99.90;;;;;;5013450;28;20460;-81
2021/07/08 02:02:17;;;;;;;10.18;8.68;;;14.60;99.90;;;;;;5010741;28;20500;-81
2021/07/08 02:04:44;;;;;;;9.73;7.82;;;14.60;99.90;;;;;;5026528;28;20099;-82
2021/07/08 02:07:09;;;;;;;11.20;7.30;;;14.60;99.90;;;;;;5037265;28;20564;-82
2021/07/08 02:09:35;;;;;;;9.23;5.90;;;14.60;99.90;;;;;;5034431;28;20376;-81
2021/07/08 02:12:02;;;;;;;8.07;5.78;;;14.60;99.90;;;;;;5034004;28;20088;-82
2021/07/08 02:14:28;;;;;;;7.57;5.05;;;14.50;99.90;;;;;;5017430;28;20037;-82
2021/07/08 02:16:55;;;;;;;10.10;5.72;;;14.50;99.90;;;;;;5035943;28;20100;-81
2021/07/08 02:19:21;;;;;;;8.52;5.65;;;14.50;99.90;;;;;;5035420;28;20103;-81
2021/07/08 02:21:48;;;;;;;11.00;9.88;;;14.50;99.90;;;;;;5017549;28;20057;-81
2021/07/08 02:24:14;;;;;;;15.20;8.10;;;14.40;99.90;;;;;;5001841;28;20470;-81
2021/07/08 02:26:40;;;;;;;7.40;4.57;;;14.40;99.90;;;;;;5013920;28;20068;-82
2021/07/08 02:29:07;;;;;;;5.35;4.05;;;14.40;99.90;;;;;;5018794;28;20059;-82
2021/07/08 02:31:33;;;;;;;6.82;5.57;;;14.40;99.90;;;;;;5017143;28;20036;-81
2021/07/08 02:33:59;;;;;;;9.75;6.78;;;14.40;99.90;;;;;;5023429;28;20131;-81
2021/07/08 02:36:25;;;;;;;16.10;8.05;;;14.30;99.90;;;;;;5001510;28;20057;-82
2021/07/08 02:38:50;;;;;;;12.15;8.70;;;14.30;99.90;;;;;;5013917;28;20036;-82
2021/07/08 02:41:16;;;;;;;12.55;9.75;;;14.40;99.90;;;;;;5031331;28;20025;-82
2021/07/08 02:43:42;;;;;;;13.00;10.45;;;14.40;99.90;;;;;;5025212;28;20093;-82
2021/07/08 02:46:09;;;;;;;16.17;9.52;;;14.40;99.90;;;;;;5024591;28;20037;-82
2021/07/08 02:48:35;;;;;;;12.93;10.23;;;14.30;99.90;;;;;;5045251;28;20060;-82
2021/07/08 02:51:01;;;;;;;14.93;8.10;;;14.30;99.90;;;;;;5042458;28;20037;-82
2021/07/08 02:53:26;;;;;;;10.45;8.05;;;14.30;99.90;;;;;;5023333;28;20698;-82
2021/07/08 02:55:53;;;;;;;12.13;8.77;;;14.30;99.90;;;;;;5039594;28;20044;-82
2021/07/08 02:58:19;;;;;;;16.50;10.13;;;14.30;99.90;;;;;;5010825;28;20057;-82
2021/07/08 03:00:48;;;;;;;12.23;10.88;;;14.20;99.90;;;;;;5038301;28;20137;-81
2021/07/08 03:03:14;;;;;;;16.05;12.45;;;14.20;99.90;;;;;;5017581;28;20589;-81
2021/07/08 03:05:40;;;;;;;16.88;12.77;;;14.20;99.90;;;;;;5024409;28;20278;-81
2021/07/08 03:08:06;;;;;;;17.08;11.25;;;14.20;99.90;;;;;;5038288;28;20738;-81
2021/07/08 03:10:33;;;;;;;16.75;12.30;;;14.20;99.90;;;;;;5043272;28;20453;-81
2021/07/08 03:12:59;;;;;;;13.40;11.98;;;14.20;99.90;;;;;;5038912;28;20033;-81
2021/07/08 03:15:25;;;;;;;15.55;11.77;;;14.20;99.90;;;;;;5042760;28;20043;-81
2021/07/08 03:17:52;;;;;;;16.80;12.63;;;14.20;99.90;;;;;;5036949;28;20037;-81
2021/07/08 03:20:23;;;;;;;14.25;11.10;;;14.20;99.90;;;;;;5045850;28;20132;-82
2021/07/08 03:22:50;;;;;;;15.00;12.32;;;14.10;99.90;;;;;;5042294;28;20053;-82
2021/07/08 03:25:18;;;;;;;22.60;13.23;;;14.10;99.90;;;;;;5042251;28;20504;-82
2021/07/08 03:27:44;;;;;;;17.17;12.27;;;14.10;99.90;;;;;;5041823;28;20103;-81
2021/07/08 03:30:13;;;;;;;15.70;10.02;;;14.00;99.90;;;;;;5038608;28;20120;-81
2021/07/08 03:32:40;;;;;;;13.40;9.50;;;14.00;99.90;;;;;;5038881;28;20041;-81
2021/07/08 03:35:08;;;;;;;11.75;9.63;;;13.90;99.90;;;;;;5019185;28;20049;-81
2021/07/08 03:37:35;;;;;;;17.05;11.23;;;13.90;99.90;;;;;;5036269;28;20048;-81
2021/07/08 03:40:01;;;;;;;19.75;13.25;;;13.90;99.90;;;;;;5021156;28;20032;-81
2021/07/08 03:42:27;;;;;;;14.40;11.63;;;13.80;99.90;;;;;;5028440;28;20022;-81
2021/07/08 03:44:54;;;;;;;18.60;11.93;;;13.80;99.90;;;;;;5008552;28;20044;-82
2021/07/08 03:47:20;;;;;;;16.20;12.07;;;13.80;99.90;;;;;;5036332;28;20044;-81
2021/07/08 03:49:45;;;;;;;12.95;11.57;;;13.80;99.90;;;;;;5038916;28;20790;-81
2021/07/08 03:52:11;;;;;;;17.17;11.45;;;13.80;99.90;;;;;;5022707;28;20090;-81
2021/07/08 03:54:37;;;;;;;18.63;11.73;;;13.80;99.90;;;;;;5009514;28;20623;-82
2021/07/08 03:57:04;;;;;;;13.30;11.52;;;13.80;99.90;;;;;;5042006;28;20136;-81
2021/07/08 03:59:30;;;;;;;18.60;12.07;;;13.90;99.90;;;;;;5021744;28;20052;-81
2021/07/08 04:01:56;;;;;;;16.38;11.88;;;13.90;99.90;;;;;;5034780;28;20465;-81
2021/07/08 04:04:22;;;;;;;15.38;12.88;;;13.90;99.90;;;;;;5028176;28;20099;-81
2021/07/08 04:06:48;;;;;;;16.02;12.57;;;13.90;99.90;;;;;;5020928;28;20559;-81
2021/07/08 04:09:14;;;;;;;18.85;13.48;;;13.90;99.90;;;;;;5023878;28;20029;-81
2021/07/08 04:11:40;;;;;;;19.00;13.23;;;13.90;99.90;;;;;;5008961;28;20040;-81
2021/07/08 04:14:05;;;;;;;14.50;12.27;;;13.90;99.90;;;;;;5032000;28;20037;-81
2021/07/08 04:16:31;;;;;;;16.35;11.65;;;14.00;99.90;;;;;;5008467;28;20507;-81
2021/07/08 04:19:02;;;;;;;17.88;11.52;;;14.00;99.90;;;;;;5036867;28;20059;-81
2021/07/08 04:21:29;;;;;;;12.45;11.07;;;14.00;99.90;;;;;;5034778;28;20509;-81
2021/07/08 04:23:54;;;;;;;16.40;13.40;;;14.10;99.90;;;;;;5020169;28;20033;-81
2021/07/08 04:26:21;;;;;;;15.55;9.70;;;14.10;99.90;;;;;;5015900;28;20087;-81
2021/07/08 04:28:47;;;;;;;18.38;11.05;;;14.10;99.90;;;;;;5050565;28;20041;-81
2021/07/08 04:31:16;;;;;;;11.98;10.23;;;14.10;99.90;;;;;;5018410;28;20041;-82
2021/07/08 04:33:43;;;;;;;18.85;11.60;;;14.10;99.90;;;;;;5036261;28;20047;-82
2021/07/08 04:36:12;;;;;;;19.80;11.80;;;14.20;99.90;;;;;;5036108;28;20115;-82
2021/07/08 04:38:46;;;;;;;20.25;11.52;;;14.20;99.90;;;;;;5037928;28;20071;-82
2021/07/08 04:41:32;;;;;;;18.98;11.85;;;14.20;99.90;;;;;;5026264;28;20108;-82
2021/07/08 04:43:59;;;;;;;16.65;12.98;;;14.20;99.90;;;;;;5027938;28;20115;-82
2021/07/08 04:46:26;;;;;;;13.20;11.75;;;14.20;99.90;;;;;;5028413;28;20025;-82
2021/07/08 04:48:57;;;;;;;12.63;11.27;;;14.20;99.90;;;;;;5030576;28;20034;-82
2021/07/08 04:51:24;;;;;;;15.57;12.50;;;14.30;99.90;;;;;;5005964;28;20489;-82
2021/07/08 04:53:51;;;;;;;17.23;12.77;;;14.30;99.90;;;;;;5039378;28;20029;-82
2021/07/08 04:56:17;;;;;;;16.17;12.65;;;14.40;99.90;;;;;;5029201;28;20040;-82
2021/07/08 04:58:43;;;;;;;16.63;13.07;;;14.40;99.90;;;;;;5032084;28;20168;-82
2021/07/08 05:01:10;;;;;;;16.13;13.30;;;14.60;99.90;;;;;;5034225;28;20048;-82
2021/07/08 05:03:36;;;;;;;14.13;12.63;;;14.60;99.90;;;;;;5005013;28;20038;-81
2021/07/08 05:06:02;;;;;;;16.52;13.10;;;14.70;99.90;;;;;;5003311;28;20052;-82
2021/07/08 05:08:28;;;;;;;16.50;13.45;;;14.70;99.90;;;;;;5037035;28;20071;-82
2021/07/08 05:10:53;;;;;;;18.42;13.93;;;14.80;99.90;;;;;;5012574;28;20055;-82
2021/07/08 05:13:19;;;;;;;19.35;15.25;;;14.90;99.90;;;;;;5015583;28;20501;-81
2021/07/08 05:15:45;;;;;;;20.48;17.02;;;15.00;99.90;;;;;;4989480;28;20045;-81
2021/07/08 05:18:11;;;;;;;21.80;15.30;;;15.10;99.90;;;;;;5023713;28;20037;-82
2021/07/08 05:20:40;;;;;;;23.25;18.60;;;15.20;99.90;;;;;;5011947;28;20046;-82
2021/07/08 05:23:14;;;;;;;25.90;20.15;;;15.20;99.90;;;;;;5002603;28;20065;-82
2021/07/08 05:25:40;;;;;;;25.55;20.08;;;15.30;99.90;;;;;;4988371;28;20447;-82
2021/07/08 05:28:06;;;;;;;25.15;19.25;;;15.40;99.90;;;;;;5024521;28;20036;-82
2021/07/08 05:30:32;;;;;;;25.33;20.73;;;15.50;99.90;;;;;;5007911;28;20128;-82
2021/07/08 05:32:59;;;;;;;24.67;19.27;;;15.60;99.90;;;;;;5005442;28;20033;-81
2021/07/08 05:35:26;;;;;;;25.63;19.35;;;15.70;99.90;;;;;;5017408;28;20401;-82
2021/07/08 05:37:52;;;;;;;23.13;20.38;;;15.70;99.90;;;;;;5034558;28;20742;-82
2021/07/08 05:40:19;;;;;;;25.90;19.23;;;15.80;99.90;;;;;;5035055;28;20052;-82
2021/07/08 05:42:45;;;;;;;25.35;18.92;;;15.90;99.90;;;;;;5027327;28;20036;-82
2021/07/08 05:45:11;;;;;;;27.00;19.33;;;16.00;99.90;;;;;;5029766;28;20036;-81
2021/07/08 05:47:37;;;;;;;26.63;21.50;;;16.10;99.90;;;;;;5036943;28;20044;-82
2021/07/08 05:50:04;;;;;;;25.67;20.23;;;16.10;99.90;;;;;;5039806;28;20033;-82
2021/07/08 05:52:29;;;;;;;25.38;19.10;;;16.20;99.90;;;;;;5034098;28;20080;-81
2021/07/08 05:54:55;;;;;;;28.17;20.38;;;16.40;99.90;;;;;;5027940;28;20033;-82
2021/07/08 05:57:21;;;;;;;24.83;20.30;;;16.50;99.90;;;;;;5025021;28;20489;-82
2021/07/08 05:59:47;;;;;;;25.88;19.48;;;16.50;99.90;;;;;;5031097;28;20037;-82
2021/07/08 06:02:13;;;;;;;28.05;18.73;;;16.60;99.90;;;;;;5018513;28;20037;-82
2021/07/08 06:04:40;;;;;;;24.63;18.52;;;16.70;99.90;;;;;;5039513;28;20124;-82
2021/07/08 06:07:06;;;;;;;27.30;20.48;;;16.80;99.80;;;;;;5020581;28;20512;-82
2021/07/08 06:09:31;;;;;;;25.17;19.25;;;16.80;99.80;;;;;;5013972;28;20098;-82
2021/07/08 06:11:58;;;;;;;24.30;18.60;;;16.90;99.80;;;;;;5032724;28;20037;-82
2021/07/08 06:14:24;;;;;;;23.52;18.63;;;17.00;99.80;;;;;;5023458;28;20038;-82
2021/07/08 06:16:49;;;;;;;24.95;20.60;;;17.10;99.70;;;;;;5030245;28;20030;-82
2021/07/08 06:19:15;;;;;;;23.83;18.30;;;17.20;99.70;;;;;;5035132;28;20025;-82
2021/07/08 06:21:41;;;;;;;27.05;19.55;;;17.20;99.50;;;;;;5019607;28;20120;-82
2021/07/08 06:24:09;;;;;;;24.50;20.63;;;17.30;99.50;;;;;;5035243;28;20470;-82
2021/07/08 06:26:36;;;;;;;20.80;17.98;;;17.40;99.50;;;;;;5032195;28;20449;-82
2021/07/08 06:29:02;;;;;;;21.83;17.98;;;17.40;99.40;;;;;;5040799;28;20035;-81
2021/07/08 06:31:28;;;;;;;19.85;17.80;;;17.50;99.30;;;;;;5017699;28;20053;-82
2021/07/08 06:33:54;;;;;;;22.17;18.50;;;17.60;99.20;;;;;;5036231;28;20037;-82
2021/07/08 06:36:19;;;;;;;21.20;16.88;;;17.70;99.10;;;;;;5022573;28;20355;-82
2021/07/08 06:38:45;;;;;;;24.02;17.17;;;17.80;99.00;;;;;;5039004;28;20036;-82
2021/07/08 06:41:11;;;;;;;21.55;17.13;;;18.00;98.80;;;;;;5020675;28;20033;-82
2021/07/08 06:43:37;;;;;;;21.38;17.30;;;18.10;98.70;;;;;;5026305;28;20042;-81
2021/07/08 06:46:02;;;;;;;19.50;16.13;;;18.20;98.60;;;;;;5019653;28;20038;-82
2021/07/08 06:48:28;;;;;;;22.40;15.98;;;18.40;98.40;;;;;;5039329;28;20132;-81
2021/07/08 06:50:54;;;;;;;20.23;15.43;;;18.50;98.20;;;;;;5033152;28;20033;-82
2021/07/08 06:53:20;;;;;;;17.38;15.00;;;18.70;98.10;;;;;;5036784;28;20087;-82
2021/07/08 06:55:47;;;;;;;22.67;15.50;;;18.80;98.20;;;;;;5020282;28;20044;-82
2021/07/08 06:58:13;;;;;;;20.05;15.15;;;19.00;97.80;;;;;;5013835;28;20035;-81
2021/07/08 07:00:41;;;;;;;19.08;15.70;;;19.10;97.50;;;;;;5042865;28;20155;-82
2021/07/08 07:03:08;;;;;;;21.50;15.75;;;19.30;97.30;;;;;;5034865;28;20025;-82
2021/07/08 07:05:34;;;;;;;18.25;15.23;;;19.40;97.20;;;;;;4986580;28;20049;-82
2021/07/08 07:08:00;;;;;;;13.65;12.18;;;19.50;97.00;;;;;;5049267;28;20068;-82
2021/07/08 07:10:28;;;;;;;17.85;13.15;;;19.70;96.60;;;;;;5042037;28;20076;-82
2021/07/08 07:12:57;;;;;;;15.50;12.35;;;19.70;96.30;;;;;;5052579;28;20033;-82
2021/07/08 07:15:26;;;;;;;16.02;12.93;;;19.80;96.10;;;;;;5043741;28;20101;-82
2021/07/08 07:17:52;;;;;;;15.95;11.98;;;19.90;95.90;;;;;;5053192;28;20059;-82
2021/07/08 07:20:19;;;;;;;17.92;12.23;;;20.00;95.80;;;;;;5046420;28;20539;-81
2021/07/08 07:22:47;;;;;;;16.13;12.90;;;20.10;95.60;;;;;;5044843;28;20033;-82
2021/07/08 07:25:15;;;;;;;15.07;12.93;;;20.30;95.60;;;;;;5049673;28;20045;-82
2021/07/08 07:27:41;;;;;;;20.35;12.57;;;20.40;95.60;;;;;;5047716;28;20052;-82
2021/07/08 07:30:07;;;;;;;13.75;10.45;;;20.50;95.30;;;;;;5047522;28;20056;-81
2021/07/08 07:32:34;;;;;;;12.32;10.68;;;20.50;94.70;;;;;;5050182;28;20032;-81
2021/07/08 07:35:00;;;;;;;12.65;10.30;;;20.60;94.40;;;;;;5031618;28;20045;-81
2021/07/08 07:37:27;;;;;;;16.52;11.10;;;20.70;94.00;;;;;;5048049;28;20033;-82
2021/07/08 07:39:53;;;;;;;10.60;9.55;;;20.80;93.90;;;;;;5053567;28;20037;-82
2021/07/08 07:42:19;;;;;;;12.20;9.95;;;20.80;93.60;;;;;;5046135;28;20034;-81
2021/07/08 07:44:47;;;;;;;14.25;10.45;;;20.90;93.30;;;;;;5045682;28;20552;-82
2021/07/08 07:47:16;;;;;;;12.93;9.98;;;21.00;93.20;;;;;;5044094;28;20445;-81
2021/07/08 07:49:43;;;;;;;13.77;10.20;;;21.10;93.00;;;;;;5032218;28;20029;-82
2021/07/08 07:52:12;;;;;;;18.48;10.43;;;21.10;93.10;;;;;;5022066;28;20025;-82
2021/07/08 07:54:38;;;;;;;15.00;9.18;;;21.20;93.10;;;;;;5046934;28;20029;-82
2021/07/08 07:57:05;;;;;;;14.38;9.23;;;21.30;92.80;;;;;;5024662;28;20358;-81
2021/07/08 07:59:34;;;;;;;8.27;6.97;;;21.40;92.50;;;;;;5035696;28;20116;-81
2021/07/08 08:02:01;;;;;;;9.88;7.43;;;21.50;92.10;;;;;;5029641;28;20030;-81
2021/07/08 08:04:30;;;;;;;13.77;8.75;;;21.60;91.80;;;;;;5039533;28;20029;-82
2021/07/08 08:09:40;;;;;;;9.15;7.15;;;21.60;90.90;;;;;;5037805;28;20060;-81
2021/07/08 08:12:07;;;;;;;9.85;7.60;;;21.70;90.70;;;;;;5027828;28;20048;-81
2021/07/08 08:14:33;;;;;;;9.88;5.57;;;21.70;90.50;;;;;;5031427;28;20052;-82
2021/07/08 08:16:59;;;;;;;6.72;3.42;;;21.70;89.70;;;;;;5007081;28;20560;-82
2021/07/08 08:19:25;;;;;;;5.75;3.90;;;21.70;87.50;;;;;;5024041;28;20029;-82
2021/07/08 08:21:51;;;;;;;5.47;3.50;;;21.70;85.50;;;;;;5050144;28;20119;-82
2021/07/08 08:24:17;;;;;;;6.03;3.10;;;21.80;85.10;;;;;;5041674;28;20386;-82
2021/07/08 08:26:43;;;;;;;6.75;4.40;;;21.80;84.80;;;;;;5040780;28;20118;-81
2021/07/08 08:29:09;;;;;;;7.78;4.93;;;21.80;84.60;;;;;;5044759;28;20030;-81
2021/07/08 08:31:34;;;;;;;8.77;4.68;;;21.80;84.40;;;;;;5036058;28;20507;-81
2021/07/08 08:34:01;;;;;;;6.68;4.78;;;21.80;85.00;;;;;;5008619;28;20036;-81
2021/07/08 08:36:27;;;;;;;6.40;3.90;;;21.80;85.90;;;;;;5039028;28;20530;-81
2021/07/08 08:38:52;;;;;;;7.53;3.50;;;21.90;84.60;;;;;;5028970;28;20029;-81
2021/07/08 08:41:18;;;;;;;9.52;4.25;;;21.90;83.60;;;;;;5034707;28;20056;-82
2021/07/08 08:43:44;;;;;;;6.93;4.40;;;21.90;82.80;;;;;;5029778;28;20058;-82
2021/07/08 08:46:12;;;;;;;8.77;4.40;;;22.00;82.80;;;;;;5045435;28;20511;-81
2021/07/08 08:48:38;;;;;;;8.90;4.50;;;22.00;82.80;;;;;;5039361;28;20144;-81
2021/07/08 08:51:06;;;;;;;9.07;4.40;;;22.00;83.30;;;;;;5008850;28;20537;-82
2021/07/08 08:53:32;;;;;;;6.57;4.13;;;22.00;84.20;;;;;;5043043;28;20040;-82
2021/07/08 08:55:58;;;;;;;7.95;4.22;;;22.00;83.20;;;;;;5046579;28;20045;-81
2021/07/08 08:58:24;;;;;;;7.05;4.35;;;22.00;82.00;;;;;;5039956;28;20033;-81
2021/07/08 09:00:57;;;;;;;9.05;4.30;;;22.00;81.80;;;;;;5037355;28;20085;-81
2021/07/08 09:03:26;;;;;;;5.03;3.75;;;22.00;82.10;;;;;;5032941;28;20032;-82
2021/07/08 09:06:07;;;;;;;7.90;4.18;;;22.10;80.80;;;;;;5033057;28;20179;-81
2021/07/08 09:08:37;;;;;;;5.18;3.90;;;22.00;79.90;;;;;;5033623;28;20033;-82
2021/07/08 09:11:07;;;;;;;7.35;4.20;;;22.00;80.00;;;;;;5014528;28;20140;-81
2021/07/08 09:13:42;;;;;;;8.73;4.38;;;21.90;80.10;;;;;;5036551;28;20068;-81
2021/07/08 09:16:13;;;;;;;6.13;4.10;;;21.90;82.00;;;;;;5054825;28;20041;-81
2021/07/08 09:18:39;;;;;;;7.15;3.50;;;22.00;80.50;;;;;;5051267;28;20041;-81
2021/07/08 09:21:19;;;;;;;5.57;4.10;;;22.00;80.40;;;;;;5036668;28;20082;-81
2021/07/08 09:24:12;;;;;;;7.97;4.18;;;22.10;79.50;;;;;;5012193;28;20061;-82
2021/07/08 09:26:44;;;;;;;10.20;4.63;;;22.10;79.80;;;;;;5042210;28;20041;-81
2021/07/08 09:29:18;;;;;;;10.13;4.10;;;22.20;78.40;;;;;;5042008;28;20033;-81
2021/07/08 09:31:53;;;;;;;7.70;4.15;;;22.20;79.10;;;;;;5037340;28;20037;-81
2021/07/08 09:34:27;;;;;;;6.32;4.10;;;22.20;80.30;;;;;;5045815;28;20059;-82
2021/07/08 09:37:08;;;;;;;7.00;4.43;;;22.10;80.90;;;;;;5043268;28;20116;-81
2021/07/08 09:39:38;;;;;;;8.45;4.13;;;22.10;81.40;;;;;;5040859;28;20041;-81
2021/07/08 09:42:05;;;;;;;7.03;3.50;;;22.00;80.40;;;;;;5042573;28;20480;-81
2021/07/08 09:44:32;;;;;;;5.03;3.78;;;22.00;80.20;;;;;;5031453;28;20033;-82
2021/07/08 09:46:58;;;;;;;8.27;4.38;;;22.00;80.60;;;;;;5024621;28;20037;-80
2021/07/08 09:49:27;;;;;;;7.82;4.22;;;22.00;80.20;;;;;;5033912;28;20057;-80
2021/07/08 09:51:53;;;;;;;9.52;5.18;;;22.10;80.20;;;;;;5040293;28;20072;-81
2021/07/08 09:55:47;;;;;;;10.50;5.13;;;22.20;80.50;;;;;;5039106;28;20116;-79
2021/07/08 09:57:46;;;;;;;8.63;4.65;;;22.30;80.90;;;;;;5025843;28;20045;-81
2021/07/08 10:00:18;;;;;;;9.45;5.07;;;22.50;80.90;;;;;;5035893;28;20082;-80
2021/07/08 10:02:45;;;;;;;9.52;6.03;;;22.50;79.90;;;;;;5046648;28;20041;-79
2021/07/08 10:05:12;;;;;;;8.63;5.68;;;22.60;80.50;;;;;;5034268;28;20621;-79
2021/07/08 10:07:38;;;;;;;8.98;6.32;;;22.60;80.60;;;;;;5030867;28;20043;-80
2021/07/08 10:10:05;;;;;;;9.50;6.13;;;22.50;80.90;;;;;;5021916;28;20436;-80
2021/07/08 10:12:33;;;;;;;8.52;5.55;;;22.50;80.40;;;;;;5040442;28;20040;-81
2021/07/08 10:15:04;;;;;;;9.40;6.03;;;22.30;80.20;;;;;;5030934;28;20413;-81
2021/07/08 10:17:33;;;;;;;14.70;5.70;;;22.30;79.80;;;;;;5032439;28;20037;-79
2021/07/08 10:20:00;;;;;;;7.68;5.28;;;22.20;80.30;;;;;;5041129;28;20304;-81
2021/07/08 10:22:26;;;;;;;11.27;5.45;;;22.10;80.30;;;;;;5034023;28;20072;-81
2021/07/08 10:24:52;;;;;;;8.05;5.10;;;22.10;79.90;;;;;;5028657;28;20154;-80
2021/07/08 10:27:19;;;;;;;8.20;5.00;;;22.10;79.30;;;;;;5032806;28;20049;-81
2021/07/08 10:29:45;;;;;;;9.63;4.82;;;22.10;79.70;;;;;;5031072;28;20032;-80
2021/07/08 10:32:16;;;;;;;8.13;4.78;;;22.10;80.50;;;;;;5034171;28;20037;-81
2021/07/08 10:34:47;;;;;;;9.02;4.90;;;22.10;81.60;;;;;;5035192;28;20120;-81
2021/07/08 10:37:29;;;;;;;8.27;5.15;;;22.10;82.90;;;;;;5025648;28;20368;-81
2021/07/08 10:39:57;;;;;;;7.85;4.97;;;22.10;82.40;;;;;;5034387;28;20037;-80
2021/07/08 10:42:44;;;;;;;9.10;5.40;;;22.00;82.40;;;;;;5040489;28;20044;-80
2021/07/08 10:45:22;;;;;;;8.57;5.03;;;22.00;82.10;;;;;;5038721;28;20029;-81
2021/07/08 10:47:53;;;;;;;5.07;4.30;;;22.00;81.30;;;;;;5038290;28;20035;-81
2021/07/08 10:50:40;;;;;;;7.53;4.57;;;22.00;81.70;;;;;;5030831;28;20025;-79
2021/07/08 10:53:20;;;;;;;8.60;4.68;;;21.90;82.60;;;;;;5028853;28;20112;-80
2021/07/08 10:55:49;;;;;;;8.18;5.00;;;21.90;81.60;;;;;;5030266;28;20057;-79
2021/07/08 10:58:56;;;;;;;9.02;5.63;;;21.90;82.40;;;;;;5029365;28;20111;-80
2021/07/08 11:01:22;;;;;;;9.05;5.00;;;21.90;83.00;;;;;;5022234;28;20557;-80
2021/07/08 11:04:07;;;;;;;9.32;5.70;;;21.80;83.40;;;;;;5039850;28;20040;-80
2021/07/08 11:06:34;;;;;;;8.15;5.55;;;21.80;82.60;;;;;;5031488;28;20121;-81
2021/07/08 11:09:18;;;;;;;8.23;6.00;;;21.70;81.90;;;;;;5038248;28;20064;-80
2021/07/08 11:11:50;;;;;;;12.38;6.13;;;21.70;82.20;;;;;;5029538;28;20025;-80
2021/07/08 11:14:17;;;;;;;9.40;6.05;;;21.70;83.90;;;;;;5028511;28;20029;-81
2021/07/08 11:17:07;;;;;;;11.38;5.85;;;21.70;84.30;;;;;;5035074;28;20064;-79
2021/07/08 11:19:38;;;;;;;10.55;6.20;;;21.70;85.80;;;;;;5036742;28;20068;-81
2021/07/08 11:22:09;;;;;;;8.77;5.72;;;21.70;87.20;;;;;;5025157;28;20529;-81
2021/07/08 11:24:38;;;;;;;9.10;5.85;;;21.70;86.70;;;;;;5028539;28;20485;-80
2021/07/08 11:27:06;;;;;;;9.43;5.68;;;21.70;86.50;;;;;;5043929;28;20044;-81
2021/07/08 11:29:33;;;;;;;9.10;5.85;;;21.70;86.70;;;;;;5020709;28;20603;-80
2021/07/08 11:31:59;;;;;;;7.28;5.68;;;21.60;86.90;;;;;;5043952;28;20033;-80
2021/07/08 11:34:26;;;;;;;9.77;5.95;;;21.60;86.80;;;;;;5018449;28;20509;-82
2021/07/08 11:36:54;;;;;;;10.70;6.47;;;21.50;86.30;;;;;;4997289;28;20076;-82
2021/07/08 11:39:24;;;;;;;14.80;7.13;;;21.40;87.90;;;;;;5035062;28;20025;-81
2021/07/08 11:41:54;;;;;;;14.82;7.70;;;21.30;88.70;;;;;;5038670;28;20034;-80
2021/07/08 11:44:30;;;;;;;13.73;9.07;;;21.20;90.10;;;;;;5041410;28;20037;-80
2021/07/08 11:46:59;;;;;;;17.13;9.75;;;21.10;91.10;;;;;;5033829;28;20044;-80
2021/07/08 11:49:28;;;;;;;14.55;9.60;;;20.90;91.80;;;;;;5047615;28;20029;-79
2021/07/08 11:51:54;;;;;;;17.60;10.48;;;20.80;92.20;;;;;;5033979;28;20141;-81
2021/07/08 11:54:20;;;;;;;30.35;14.18;;;20.60;92.60;;;;;;5018264;28;20129;-81
2021/07/08 11:56:46;;;;;;;33.03;15.18;;;20.50;93.20;;;;;;5034188;28;20059;-82
2021/07/08 11:59:12;;;;;;;47.85;18.55;;;20.30;93.80;;;;;;5021062;28;20629;-83
2021/07/08 12:01:41;;;;;;;31.88;15.57;;;20.20;94.50;;;;;;5031162;28;20107;-83
2021/07/08 12:04:20;;;;;;;28.45;16.63;;;20.10;95.00;;;;;;4997528;28;20108;-81
2021/07/08 12:06:46;;;;;;;28.67;16.17;;;20.10;95.40;;;;;;5030429;28;21018;-82
2021/07/08 12:09:15;;;;;;;32.70;17.10;;;20.00;95.70;;;;;;5005145;28;20047;-81
2021/07/08 12:11:43;;;;;;;32.35;18.00;;;20.00;96.00;;;;;;5038482;28;20032;-82
2021/07/08 12:14:14;;;;;;;21.88;15.40;;;19.90;96.30;;;;;;5017096;28;20025;-82
2021/07/08 12:16:47;;;;;;;14.90;13.30;;;19.90;96.60;;;;;;5037212;28;20048;-81
2021/07/08 12:19:31;;;;;;;20.00;13.75;;;19.90;96.60;;;;;;5038568;28;20128;-81
2021/07/08 12:22:02;;;;;;;18.50;12.32;;;19.90;96.60;;;;;;5033732;28;20039;-81
2021/07/08 12:24:27;;;;;;;19.40;13.65;;;19.90;96.30;;;;;;5037554;28;20075;-82
2021/07/08 12:26:56;;;;;;;17.25;11.43;;;19.90;96.30;;;;;;5044620;28;20040;-81
2021/07/08 12:29:33;;;;;;;17.55;13.00;;;20.00;96.00;;;;;;5030526;28;20037;-82
2021/07/08 12:32:06;;;;;;;18.70;13.13;;;20.00;96.10;;;;;;5037316;28;20116;-82
2021/07/08 12:35:02;;;;;;;18.13;13.43;;;20.00;96.30;;;;;;5038607;28;20033;-82
2021/07/08 12:37:31;;;;;;;20.42;15.98;;;20.00;96.40;;;;;;5036998;28;20044;-81
2021/07/08 12:39:57;;;;;;;18.60;11.80;;;20.00;96.70;;;;;;5030537;28;20090;-81
2021/07/08 12:42:25;;;;;;;17.90;14.07;;;20.00;96.40;;;;;;5039137;28;20033;-82
2021/07/08 12:44:53;;;;;;;16.27;12.73;;;20.10;96.60;;;;;;5038623;28;20053;-82